• Join FlightAware (Why Join?)
  • Login
  • US Flag 
07:16PM EDT


 

Airport Tracker/Info


-or-


 

Live Flight TrackerFlight Track Log ✈ N999TF ✈ 25-Jun-2013 ✈ KUAO - KUAO

Flight Track Log - Related Links

Times and Time Zones

All times are in EDT time to prevent confusion due to time zone crossing. See the N999TF flight status page for this flight to view local times or setup timezone preferences in your user account.

Time Position Orientation Groundspeed Altitude Reporting Facility
EDT Latitude Longitude Course Direction KTS MPH feet Rate Location/Type
12:19PM 45.2286 -122.7739 129° Southeast 106 122 1,000  Level Seattle Center
12:20PM 45.2181 -122.7750 184° South 101 116 1,200 1,020 Climbing Seattle Center
12:21PM 45.2231 -122.8097 282° West 128 147 2,600 1,140 Climbing Seattle Center
12:22PM 45.2533 -122.8300 335° Northwest 130 150 3,400 660 Climbing Seattle Center
12:23PM 45.2471 -122.7701 317° Northwest  Level Estimated
12:23PM 45.2936 -122.8439 346° North 138 159 3,900  Level Seattle Center
12:24PM 45.2471 -122.7701 129° Southeast  Level Estimated
12:24PM 45.3444 -122.8481 357° North 167 192 3,900  Level Seattle Center
12:25PM 45.3950 -122.8514 357° North 177 204 3,900 -240 Level Seattle Center
12:26PM 45.4467 -122.8456 North 174 200 3,500 -540 Descending Seattle Center
12:27PM 45.4717 -122.8042 49° Northeast 167 192 2,900 -300 Descending Seattle Center
12:28PM 45.4678 -122.7578 97° East 145 167 2,900  Level Seattle Center
12:29PM 45.4411 -122.7428 158° South 116 133 2,900  Level Seattle Center
12:30PM 45.4083 -122.7411 178° South 118 136 3,000 -180 Climbing Seattle Center
12:31PM 45.3753 -122.7483 189° South 111 128 2,600 -540 Descending Seattle Center
12:32PM 45.3456 -122.7531 186° South 109 125 1,900 -600 Descending Seattle Center
12:33PM 45.3183 -122.7581 187° South 102 117 1,400 -540 Descending Seattle Center
12:34PM 45.2922 -122.7631 188° South 99 114 900 -540 Descending Seattle Center
12:35PM 45.2656 -122.7672 186° South 97 112 400 240 Descending Seattle Center
12:36PM 45.2347 -122.7731 188° South 103 119 1,500 960 Climbing Seattle Center
12:37PM 45.2014 -122.7781 186° South 115 132 2,400 900 Climbing Seattle Center
12:38PM 45.1903 -122.7506 120° Southeast 157 181 3,400 720 Climbing Seattle Center
12:39PM 45.2400 -122.7111 29° Northeast 166 191 4,000 240 Climbing Seattle Center
12:40PM 45.2728 -122.6900 24° Northeast 172 198 3,900 -420 Descending Seattle Center
12:41PM 45.3219 -122.6800 North 174 200 3,300 -540 Descending Seattle Center
12:42PM 45.3658 -122.6819 358° North 163 188 2,900 -240 Descending Seattle Center
12:43PM 45.4133 -122.6803 North 148 170 2,900  Level Seattle Center
12:44PM 45.4522 -122.6806 360° North 142 163 2,900  Level Seattle Center
12:45PM 45.4517 -122.7322 269° West 137 158 2,900  Level Seattle Center
12:46PM 45.4175 -122.7383 187° South 122 140 2,900 -120 Level Seattle Center
12:47PM 45.3850 -122.7425 185° South 119 137 2,700 -480 Descending Seattle Center
12:48PM 45.3564 -122.7489 189° South 111 128 2,000 -600 Descending Seattle Center
12:49PM 45.3300 -122.7583 194° South 101 116 1,500 -480 Descending Seattle Center
12:50PM 45.3014 -122.7608 184° South 101 116 1,100 -600 Descending Seattle Center
12:51PM 45.2728 -122.7658 187° South 102 117 400 60 Descending Seattle Center
12:52PM 45.2425 -122.7567 168° South 105 121 1,300 720 Climbing Seattle Center
12:53PM 45.2075 -122.7386 160° South 124 143 1,900 660 Climbing Seattle Center
12:54PM 45.1786 -122.7058 141° Southeast 150 173 2,700 780 Climbing Seattle Center
12:55PM 45.2217 -122.6736 28° Northeast 159 183 3,600 600 Climbing Seattle Center
12:56PM 45.2703 -122.6681 North 170 196 4,000  Climbing Seattle Center
12:57PM 45.3244 -122.6678 360° North 184 212 3,700 -540 Descending Seattle Center
12:58PM 45.3758 -122.6653 North 183 211 3,000 -420 Descending Seattle Center
12:59PM 45.4139 -122.6650 360° North 164 189 2,900 -120 Descending Seattle Center
01:00PM 45.4439 -122.6806 340° North 149 171 2,800  Descending Seattle Center
01:01PM 45.4353 -122.7211 253° West 138 159 2,900 -240 Climbing Seattle Center
01:02PM 45.4039 -122.7428 206° Southwest 132 152 2,400 -360 Descending Seattle Center
01:03PM 45.3681 -122.7506 189° South 129 148 2,200 -300 Descending Seattle Center
01:04PM 45.3406 -122.7544 186° South 108 124 1,800 -360 Descending Seattle Center
01:05PM 45.3086 -122.7619 189° South 103 119 1,500 -300 Descending Seattle Center